createdAt,value
2022-09-09T00:00:43.117Z,9.65
2022-09-09T00:01:50.475Z,9.92
2022-09-09T00:03:13.666Z,9.68
2022-09-09T00:04:23.300Z,9.51
2022-09-09T00:05:45.218Z,10.67
2022-09-09T00:07:04.058Z,10.37
2022-09-09T00:08:10.574Z,9.41
2022-09-09T00:09:19.695Z,9.52
2022-09-09T00:10:26.354Z,10.71
2022-09-09T00:11:37.141Z,9.61
2022-09-09T00:13:51.266Z,9.69
2022-09-09T00:15:16.267Z,9.84
2022-09-09T00:17:41.146Z,10.17
2022-09-09T00:19:11.784Z,9.94
2022-09-09T00:20:37.103Z,10.14
2022-09-09T00:21:46.430Z,9.72
2022-09-09T00:22:59.778Z,9.64
2022-09-09T00:24:13.920Z,9.96
2022-09-09T00:25:22.051Z,10.24
2022-09-09T00:26:35.061Z,9.94
2022-09-09T00:27:44.331Z,9.82
2022-09-09T00:29:07.190Z,9.54
2022-09-09T00:30:19.196Z,9.88
2022-09-09T00:31:25.806Z,9.81
2022-09-09T00:32:31.493Z,10.93
2022-09-09T00:33:34.875Z,10.98
2022-09-09T00:34:41.909Z,11.01
2022-09-09T00:35:53.822Z,10.04
2022-09-09T00:36:57.087Z,9.96
2022-09-09T00:38:15.512Z,9.98
2022-09-09T00:39:37.630Z,10.43
2022-09-09T00:40:52.943Z,10.42
2022-09-09T00:42:18.549Z,10.07
2022-09-09T00:43:32.985Z,10.13
2022-09-09T00:44:40.036Z,9.87
2022-09-09T00:45:55.446Z,10.29
2022-09-09T00:47:34.104Z,9.91
2022-09-09T00:48:43.509Z,10.04
2022-09-09T00:50:12.775Z,10.02
2022-09-09T00:51:28.213Z,9.34
2022-09-09T00:53:01.987Z,9.73
2022-09-09T00:54:26.307Z,8.91
2022-09-09T00:55:41.606Z,8.86
2022-09-09T00:56:57.954Z,9.57
2022-09-09T00:58:00.943Z,8.99
2022-09-09T00:59:12.869Z,9.59
2022-09-09T01:00:21.008Z,9.37
2022-09-09T01:01:24.036Z,9.27
2022-09-09T01:02:42.079Z,9.57
2022-09-09T01:03:51.525Z,8.61
2022-09-09T01:04:55.232Z,8.62
2022-09-09T01:06:22.805Z,8.35
2022-09-09T01:07:26.187Z,8.83
2022-09-09T01:08:41.307Z,8.69
2022-09-09T01:09:48.059Z,9.13
2022-09-09T01:10:55.356Z,9.13
2022-09-09T01:12:18.183Z,8.36
2022-09-09T01:13:31.144Z,8.53
2022-09-09T01:14:38.945Z,8.68
2022-09-09T01:15:45.020Z,8.03
2022-09-09T01:16:49.143Z,8.34
2022-09-09T01:18:08.265Z,7.78
2022-09-09T01:19:17.556Z,8.45
2022-09-09T01:20:26.067Z,8.56
2022-09-09T01:21:50.761Z,8.39
2022-09-09T01:23:00.606Z,8.58
2022-09-09T01:24:23.476Z,8.33
2022-09-09T01:25:48.027Z,9.07
2022-09-09T01:26:59.034Z,9.43
2022-09-09T01:28:06.507Z,9.28
2022-09-09T01:29:12.570Z,9.12
2022-09-09T01:30:19.052Z,9.06
2022-09-09T01:31:34.985Z,9.36
2022-09-09T01:32:41.503Z,10.21
2022-09-09T01:33:45.146Z,10.36
2022-09-09T01:34:48.380Z,8.65
2022-09-09T01:35:55.103Z,9.34
2022-09-09T01:37:05.449Z,8.84
2022-09-09T01:38:08.692Z,9.95
2022-09-09T01:39:13.140Z,9.55
2022-09-09T01:40:17.685Z,9.58
2022-09-09T01:41:21.155Z,9.61
2022-09-09T01:42:28.686Z,9.37
2022-09-09T01:43:31.806Z,10.57
2022-09-09T01:44:36.346Z,8.87
2022-09-09T01:45:41.009Z,9.61
2022-09-09T01:46:44.497Z,9.33
2022-09-09T01:47:49.852Z,8.96
2022-09-09T01:48:56.881Z,7.86
2022-09-09T01:50:01.785Z,8.71
2022-09-09T01:51:05.855Z,8.84
2022-09-09T01:52:09.342Z,8.02
2022-09-09T01:53:16.394Z,8.22
2022-09-09T01:54:21.466Z,8.74
2022-09-09T01:55:34.115Z,8.33
2022-09-09T01:56:57.480Z,8.22
2022-09-09T01:58:34.633Z,8.10
2022-09-09T01:59:44.604Z,7.78
2022-09-09T02:01:09.370Z,8.79
2022-09-09T02:02:16.133Z,8.63
2022-09-09T02:03:34.179Z,8.49
2022-09-09T02:04:45.415Z,7.63
2022-09-09T02:05:56.652Z,8.49
2022-09-09T02:07:01.537Z,8.53
2022-09-09T02:08:11.536Z,8.18
2022-09-09T02:09:21.811Z,8.11
2022-09-09T02:10:31.325Z,7.83
2022-09-09T02:11:37.365Z,8.36
2022-09-09T02:12:48.720Z,7.84
2022-09-09T02:13:55.009Z,7.75
2022-09-09T02:15:01.935Z,7.68
2022-09-09T02:17:33.146Z,6.91
2022-09-09T02:18:47.565Z,6.23
2022-09-09T02:19:54.180Z,5.43
2022-09-09T02:21:00.210Z,5.31
2022-09-09T02:22:04.495Z,5.16
2022-09-09T02:23:10.502Z,5.35
2022-09-09T02:24:16.480Z,5.54
2022-09-09T02:25:24.971Z,5.27
2022-09-09T02:26:29.264Z,5.53
2022-09-09T02:27:34.140Z,5.07
2022-09-09T02:28:38.796Z,5.44
2022-09-09T02:29:43.511Z,4.88
2022-09-09T02:30:49.132Z,4.53
2022-09-09T02:31:55.709Z,5.11
2022-09-09T02:33:03.043Z,5.05
2022-09-09T02:34:13.237Z,5.44
2022-09-09T02:35:20.752Z,4.97
2022-09-09T02:36:27.085Z,5.32
2022-09-09T02:37:33.801Z,4.88
2022-09-09T02:38:40.418Z,4.86
2022-09-09T02:39:45.218Z,5.26
2022-09-09T02:40:49.925Z,4.78
2022-09-09T02:41:53.271Z,5.01
2022-09-09T02:42:58.028Z,4.82
2022-09-09T02:44:02.248Z,5.69
2022-09-09T02:45:06.119Z,5.33
2022-09-09T02:46:32.896Z,5.11
2022-09-09T02:47:39.024Z,5.09
2022-09-09T02:49:11.115Z,5.68
2022-09-09T02:50:37.169Z,5.17
2022-09-09T02:52:06.190Z,5.26
2022-09-09T02:53:19.869Z,5.73
2022-09-09T02:54:31.584Z,5.08
2022-09-09T02:55:42.827Z,5.13
2022-09-09T02:56:50.923Z,6.08
2022-09-09T02:57:56.864Z,6.18
2022-09-09T02:59:00.152Z,6.57
2022-09-09T03:00:04.653Z,6.03
2022-09-09T03:01:09.222Z,5.73
2022-09-09T03:02:13.281Z,5.89
2022-09-09T03:03:18.324Z,5.69
2022-09-09T03:04:21.695Z,5.62
2022-09-09T03:05:26.636Z,5.78
2022-09-09T03:06:29.882Z,6.24
2022-09-09T03:07:35.333Z,5.91
2022-09-09T03:08:38.355Z,6.27
2022-09-09T03:09:42.494Z,6.28
2022-09-09T03:10:45.536Z,6.09
2022-09-09T03:11:50.492Z,6.15
2022-09-09T03:12:53.530Z,5.91
2022-09-09T03:13:56.568Z,5.36
2022-09-09T03:14:59.736Z,5.76
2022-09-09T03:16:04.454Z,5.87
2022-09-09T03:17:09.596Z,5.84
2022-09-09T03:18:14.331Z,5.97
2022-09-09T03:19:17.457Z,5.58
2022-09-09T03:20:21.024Z,6.33
2022-09-09T03:21:25.151Z,5.69
2022-09-09T03:22:28.323Z,5.32
2022-09-09T03:23:31.824Z,6.22
2022-09-09T03:24:36.703Z,6.44
2022-09-09T03:25:40.466Z,6.23
2022-09-09T03:26:45.114Z,6.40
2022-09-09T03:27:49.462Z,6.43
2022-09-09T03:28:52.705Z,5.44
2022-09-09T03:29:56.847Z,6.34
2022-09-09T03:31:04.883Z,6.29
2022-09-09T03:32:11.170Z,5.76
2022-09-09T03:33:15.405Z,6.76
2022-09-09T03:34:18.458Z,6.35
2022-09-09T03:35:21.685Z,5.94
2022-09-09T03:36:28.866Z,5.92
2022-09-09T03:37:32.215Z,6.11
2022-09-09T03:38:35.456Z,6.56
2022-09-09T03:39:38.699Z,5.97
2022-09-09T03:40:50.559Z,6.24
2022-09-09T03:41:53.703Z,5.97
2022-09-09T03:42:57.210Z,6.62
2022-09-09T03:44:01.376Z,6.09
2022-09-09T03:45:08.089Z,6.06
2022-09-09T03:46:11.307Z,6.11
2022-09-09T03:47:14.627Z,6.14
2022-09-09T03:48:19.106Z,5.79
2022-09-09T03:49:23.677Z,6.03
2022-09-09T03:50:27.829Z,5.99
2022-09-09T03:51:30.931Z,6.21
2022-09-09T03:52:35.890Z,6.15
2022-09-09T03:53:39.452Z,6.56
2022-09-09T03:54:42.916Z,6.29
2022-09-09T03:55:53.096Z,6.14
2022-09-09T03:56:56.257Z,5.73
2022-09-09T03:58:00.802Z,6.14
2022-09-09T03:59:04.585Z,6.54
2022-09-09T04:00:09.026Z,6.55
2022-09-09T04:01:21.406Z,6.31
2022-09-09T04:02:24.886Z,6.42
2022-09-09T04:03:28.698Z,6.57
2022-09-09T04:04:32.770Z,6.24
2022-09-09T04:05:38.064Z,6.44
2022-09-09T04:06:41.246Z,6.86
2022-09-09T04:07:44.181Z,5.67
2022-09-09T04:08:48.989Z,6.20
2022-09-09T04:09:52.049Z,5.83
2022-09-09T04:10:57.385Z,5.81
2022-09-09T04:12:00.512Z,6.08
2022-09-09T04:13:04.659Z,5.78
2022-09-09T04:14:07.919Z,5.92
2022-09-09T04:15:11.150Z,6.08
2022-09-09T04:16:15.172Z,6.28
2022-09-09T04:17:18.981Z,6.54
2022-09-09T04:18:22.536Z,6.77
2022-09-09T04:19:26.085Z,6.44
2022-09-09T04:20:30.671Z,6.38
2022-09-09T04:21:33.746Z,6.96
2022-09-09T04:22:38.885Z,6.44
2022-09-09T04:23:43.043Z,6.78
2022-09-09T04:24:48.765Z,6.99
2022-09-09T04:25:53.055Z,6.40
2022-09-09T04:26:56.322Z,7.02
2022-09-09T04:27:59.248Z,5.91
2022-09-09T04:29:04.009Z,6.12
2022-09-09T04:30:08.001Z,6.21
2022-09-09T04:31:20.605Z,6.94
2022-09-09T04:32:26.104Z,6.98
2022-09-09T04:33:29.063Z,6.78
2022-09-09T04:34:33.302Z,6.67
2022-09-09T04:35:36.851Z,7.04
2022-09-09T04:36:40.873Z,6.90
2022-09-09T04:37:45.315Z,7.11
2022-09-09T04:38:49.609Z,7.42
2022-09-09T04:39:52.685Z,7.51
2022-09-09T04:40:56.436Z,6.71
2022-09-09T04:41:59.686Z,7.01
2022-09-09T04:43:05.192Z,5.92
2022-09-09T04:44:08.231Z,6.53
2022-09-09T04:45:11.779Z,6.41
2022-09-09T04:46:17.018Z,7.27
2022-09-09T04:47:20.376Z,6.82
2022-09-09T04:48:24.811Z,6.39
2022-09-09T04:49:27.973Z,6.32
2022-09-09T04:50:32.255Z,5.74
2022-09-09T04:51:35.326Z,5.76
2022-09-09T04:52:38.649Z,5.50
2022-09-09T04:53:41.832Z,5.29
2022-09-09T04:54:45.659Z,4.88
2022-09-09T04:55:49.701Z,5.11
2022-09-09T04:56:52.870Z,5.02
2022-09-09T04:57:55.987Z,5.01
2022-09-09T04:58:59.014Z,4.78
2022-09-09T05:00:11.031Z,5.29
2022-09-09T05:01:21.944Z,5.63
2022-09-09T05:02:29.731Z,5.59
2022-09-09T05:03:31.550Z,5.30
2022-09-09T05:04:34.799Z,5.35
2022-09-09T05:05:38.668Z,5.39
2022-09-09T05:06:42.708Z,5.27
2022-09-09T05:07:47.572Z,4.63
2022-09-09T05:08:52.134Z,5.06
2022-09-09T05:09:57.197Z,5.14
2022-09-09T05:11:00.629Z,4.45
2022-09-09T05:12:04.683Z,4.34
2022-09-09T05:13:09.452Z,4.47
2022-09-09T05:14:15.093Z,4.78
2022-09-09T05:15:18.226Z,4.98
2022-09-09T05:16:23.268Z,4.35
2022-09-09T05:17:26.429Z,4.36
2022-09-09T05:18:29.506Z,4.57
2022-09-09T05:19:32.685Z,4.12
2022-09-09T05:20:36.116Z,4.62
2022-09-09T05:21:39.257Z,4.37
2022-09-09T05:22:42.897Z,4.26
2022-09-09T05:23:46.941Z,4.46
2022-09-09T05:24:53.711Z,4.36
2022-09-09T05:25:57.976Z,3.57
2022-09-09T05:27:02.950Z,3.67
2022-09-09T05:28:07.836Z,3.89
2022-09-09T05:29:11.225Z,4.33
2022-09-09T05:30:15.007Z,3.99
2022-09-09T05:31:19.132Z,4.22
2022-09-09T05:32:23.192Z,4.09
2022-09-09T05:33:26.534Z,4.03
2022-09-09T05:34:29.675Z,3.92
2022-09-09T05:35:33.441Z,4.06
2022-09-09T05:36:36.683Z,3.98
2022-09-09T05:37:40.371Z,3.92
2022-09-09T05:38:44.285Z,4.41
2022-09-09T05:39:47.258Z,4.01
2022-09-09T05:40:50.601Z,4.34
2022-09-09T05:41:53.683Z,4.46
2022-09-09T05:43:00.183Z,4.92
2022-09-09T05:44:03.952Z,5.03
2022-09-09T05:45:09.616Z,4.73
2022-09-09T05:46:19.813Z,4.73
2022-09-09T05:47:23.592Z,5.04
2022-09-09T05:48:28.960Z,4.51
2022-09-09T05:49:32.235Z,5.59
2022-09-09T05:50:36.096Z,5.23
2022-09-09T05:51:39.111Z,4.99
2022-09-09T05:52:44.946Z,5.21
2022-09-09T05:53:48.950Z,5.39
2022-09-09T05:54:51.902Z,4.70
2022-09-09T05:56:07.351Z,5.33
2022-09-09T05:57:10.910Z,5.13
2022-09-09T05:58:15.863Z,5.29
2022-09-09T05:59:19.250Z,4.55
2022-09-09T06:00:23.325Z,5.08
2022-09-09T06:01:29.328Z,4.38
2022-09-09T06:02:33.520Z,4.74
2022-09-09T06:03:38.389Z,4.70
2022-09-09T06:04:42.184Z,5.08
2022-09-09T06:05:45.149Z,5.70
2022-09-09T06:06:49.141Z,5.94
2022-09-09T06:07:54.413Z,5.17
2022-09-09T06:08:58.844Z,5.11
2022-09-09T06:10:03.347Z,5.04
2022-09-09T06:11:09.984Z,4.82
2022-09-09T06:12:13.833Z,5.04
2022-09-09T06:13:16.763Z,4.28
2022-09-09T06:14:19.683Z,4.81
2022-09-09T06:15:23.835Z,5.02
2022-09-09T06:16:30.377Z,4.73
2022-09-09T06:17:33.540Z,4.94
2022-09-09T06:18:36.581Z,5.19
2022-09-09T06:19:39.698Z,4.94
2022-09-09T06:20:43.491Z,5.02
2022-09-09T06:21:48.110Z,5.41
2022-09-09T06:22:51.085Z,5.54
2022-09-09T06:23:57.752Z,5.30
2022-09-09T06:24:59.086Z,5.18
2022-09-09T06:26:06.821Z,5.79
2022-09-09T06:27:11.185Z,4.76
2022-09-09T06:28:14.110Z,5.11
2022-09-09T06:29:17.064Z,5.32
2022-09-09T06:30:21.108Z,4.53
2022-09-09T06:31:30.017Z,5.06
2022-09-09T06:32:33.541Z,5.19
2022-09-09T06:33:43.830Z,5.06
2022-09-09T06:34:49.717Z,4.74
2022-09-09T06:35:53.985Z,5.16
2022-09-09T06:36:58.704Z,4.78
2022-09-09T06:38:02.561Z,4.65
2022-09-09T06:39:10.882Z,4.92
2022-09-09T06:40:12.095Z,4.99
2022-09-09T06:41:17.535Z,4.71
2022-09-09T06:42:20.995Z,4.66
2022-09-09T06:43:26.850Z,4.59
2022-09-09T06:44:35.179Z,4.48
2022-09-09T06:45:37.363Z,4.56
2022-09-09T06:46:40.810Z,4.06
2022-09-09T06:47:44.979Z,3.77
2022-09-09T06:48:48.514Z,3.89
2022-09-09T06:49:51.985Z,3.79
2022-09-09T06:51:07.442Z,3.39
2022-09-09T06:52:10.644Z,3.76
2022-09-09T06:53:17.064Z,3.84
2022-09-09T06:54:20.511Z,4.61
2022-09-09T06:55:23.938Z,4.04
2022-09-09T06:56:36.354Z,3.84
2022-09-09T06:57:41.147Z,3.73
2022-09-09T06:58:49.346Z,3.26
2022-09-09T06:59:54.174Z,3.97
2022-09-09T07:01:05.772Z,3.39
2022-09-09T07:02:09.084Z,3.93
2022-09-09T07:03:13.966Z,3.47
2022-09-09T07:04:17.623Z,3.92
2022-09-09T07:05:21.695Z,3.36
2022-09-09T07:06:31.451Z,3.30
2022-09-09T07:07:34.925Z,3.63
2022-09-09T07:08:39.070Z,3.58
2022-09-09T07:09:42.142Z,3.84
2022-09-09T07:10:45.705Z,3.08
2022-09-09T07:11:52.061Z,3.51
2022-09-09T07:12:55.364Z,3.82
2022-09-09T07:14:01.149Z,3.49
2022-09-09T07:15:05.778Z,3.69
2022-09-09T07:16:11.857Z,3.25
2022-09-09T07:17:15.104Z,3.09
2022-09-09T07:18:18.631Z,2.97
2022-09-09T07:19:21.597Z,3.09
2022-09-09T07:20:27.168Z,2.89
2022-09-09T07:21:31.415Z,3.38
2022-09-09T07:22:34.822Z,3.12
2022-09-09T07:23:39.042Z,3.18
2022-09-09T07:24:42.217Z,2.88
2022-09-09T07:25:46.004Z,2.98
2022-09-09T07:26:49.101Z,2.64
2022-09-09T07:27:52.255Z,3.09
2022-09-09T07:28:56.795Z,2.81
2022-09-09T07:30:00.258Z,2.72
2022-09-09T07:31:03.795Z,3.04
2022-09-09T07:32:07.098Z,3.02
2022-09-09T07:33:12.207Z,2.48
2022-09-09T07:34:15.153Z,2.50
2022-09-09T07:35:18.204Z,2.96
2022-09-09T07:36:32.498Z,2.95
2022-09-09T07:37:32.771Z,2.34
2022-09-09T07:38:45.738Z,2.61
2022-09-09T07:39:50.177Z,2.63
2022-09-09T07:40:53.889Z,2.56
2022-09-09T07:41:56.993Z,2.52
2022-09-09T07:43:00.353Z,2.57
2022-09-09T07:44:12.280Z,2.71
2022-09-09T07:45:16.553Z,2.29
2022-09-09T07:46:23.889Z,2.37
2022-09-09T07:47:27.235Z,2.80
2022-09-09T07:48:30.567Z,2.96
2022-09-09T07:49:34.600Z,2.42
2022-09-09T07:50:37.661Z,2.52
2022-09-09T07:51:43.852Z,2.38
2022-09-09T07:52:47.415Z,2.51
2022-09-09T07:53:58.354Z,2.95
2022-09-09T07:55:02.748Z,2.60
2022-09-09T07:56:09.686Z,2.72
2022-09-09T07:57:13.080Z,2.52
2022-09-09T07:58:16.128Z,2.86
2022-09-09T07:59:19.572Z,2.69
2022-09-09T08:00:24.405Z,2.78
2022-09-09T08:01:31.960Z,2.79
2022-09-09T08:02:35.166Z,3.21
2022-09-09T08:03:38.890Z,2.74
2022-09-09T08:04:41.840Z,2.51
2022-09-09T08:05:44.782Z,2.54
2022-09-09T08:06:53.932Z,2.73
2022-09-09T08:07:57.402Z,2.54
2022-09-09T08:09:00.758Z,2.24
2022-09-09T08:10:05.109Z,2.60
2022-09-09T08:11:15.947Z,2.26
2022-09-09T08:13:22.124Z,2.71
2022-09-09T08:14:25.488Z,2.81
2022-09-09T08:15:29.089Z,2.71
2022-09-09T08:16:34.351Z,3.02
2022-09-09T08:17:38.331Z,2.81
2022-09-09T08:18:42.207Z,2.55
2022-09-09T08:19:46.029Z,2.78
2022-09-09T08:20:50.849Z,2.67
2022-09-09T08:21:54.500Z,2.79
2022-09-09T08:22:59.474Z,2.70
2022-09-09T08:24:03.004Z,3.00
2022-09-09T08:25:07.174Z,2.64
2022-09-09T08:26:15.929Z,2.52
2022-09-09T08:27:19.409Z,2.55
2022-09-09T08:28:22.458Z,2.76
2022-09-09T08:29:25.386Z,2.19
2022-09-09T08:30:30.449Z,2.18
2022-09-09T08:31:36.126Z,2.21
2022-09-09T08:32:40.974Z,2.31
2022-09-09T08:33:46.342Z,2.78
2022-09-09T08:34:54.661Z,2.72
2022-09-09T08:35:56.781Z,2.49
2022-09-09T08:37:00.034Z,2.79
2022-09-09T08:38:08.932Z,2.23
2022-09-09T08:39:14.865Z,2.77
2022-09-09T08:40:23.777Z,2.72
2022-09-09T08:41:42.436Z,2.34
2022-09-09T08:42:52.030Z,2.71
2022-09-09T08:44:07.763Z,2.46
2022-09-09T08:45:26.959Z,2.74
2022-09-09T08:46:57.161Z,2.91
2022-09-09T08:48:18.674Z,2.28
2022-09-09T08:49:57.186Z,2.30
2022-09-09T08:51:02.450Z,2.24
2022-09-09T08:52:13.293Z,2.44
2022-09-09T08:53:23.161Z,2.38
2022-09-09T08:54:51.206Z,2.33
2022-09-09T08:55:45.737Z,2.22
2022-09-09T08:56:50.287Z,2.39
2022-09-09T08:57:56.407Z,2.08
2022-09-09T08:59:03.297Z,2.24
2022-09-09T09:00:10.929Z,2.24
2022-09-09T09:01:33.342Z,2.47
2022-09-09T09:02:41.429Z,2.14
2022-09-09T09:03:59.979Z,2.52
2022-09-09T09:05:26.174Z,2.53
2022-09-09T09:06:39.030Z,2.01
2022-09-09T09:07:55.095Z,2.29
2022-09-09T09:09:09.467Z,2.44
2022-09-09T09:10:48.558Z,2.89
2022-09-09T09:11:58.685Z,2.73
2022-09-09T09:13:02.315Z,2.38
2022-09-09T09:14:26.289Z,2.21
2022-09-09T09:15:35.971Z,2.61
2022-09-09T09:16:55.161Z,2.51
2022-09-09T09:17:58.532Z,2.67
2022-09-09T09:19:02.898Z,2.44
2022-09-09T09:20:11.163Z,2.99
2022-09-09T09:21:21.674Z,2.24
2022-09-09T09:22:37.206Z,2.70
2022-09-09T09:23:51.356Z,2.42
2022-09-09T09:25:04.433Z,2.50
2022-09-09T09:26:11.698Z,2.61
2022-09-09T09:27:18.055Z,2.77
2022-09-09T09:28:25.483Z,2.51
2022-09-09T09:29:30.458Z,2.76
2022-09-09T09:30:43.101Z,2.76
2022-09-09T09:31:55.310Z,2.55
2022-09-09T09:33:04.934Z,2.72
2022-09-09T09:34:11.343Z,2.68
2022-09-09T09:35:14.304Z,2.47
2022-09-09T09:36:18.358Z,2.55
2022-09-09T09:37:31.920Z,2.99
2022-09-09T09:40:56.988Z,3.36
2022-09-09T09:42:06.490Z,3.10
2022-09-09T09:43:18.476Z,3.08
2022-09-09T09:44:30.389Z,2.64
2022-09-09T09:45:38.576Z,2.87
2022-09-09T09:46:41.844Z,2.79
2022-09-09T09:47:47.505Z,3.01
2022-09-09T09:49:06.029Z,2.54
2022-09-09T09:50:20.910Z,2.84
2022-09-09T09:51:26.024Z,2.96
2022-09-09T09:52:31.516Z,2.74
2022-09-09T09:53:38.806Z,2.66
2022-09-09T09:54:43.180Z,3.05
2022-09-09T09:55:49.998Z,2.97
2022-09-09T09:56:53.312Z,3.01
2022-09-09T09:59:13.369Z,2.72
2022-09-09T10:00:17.082Z,2.68
2022-09-09T10:01:28.141Z,2.59
2022-09-09T10:02:41.123Z,2.92
2022-09-09T10:03:49.390Z,2.66
2022-09-09T10:05:08.436Z,2.61
2022-09-09T10:06:11.875Z,3.02
2022-09-09T10:07:21.152Z,2.54
2022-09-09T10:08:26.146Z,2.87
2022-09-09T10:09:34.642Z,2.66
2022-09-09T10:10:50.594Z,3.05
2022-09-09T10:12:00.482Z,2.93
2022-09-09T10:13:24.382Z,2.89
2022-09-09T10:14:43.440Z,2.76
2022-09-09T10:15:53.065Z,2.66
2022-09-09T10:17:05.795Z,2.52
2022-09-09T10:18:28.778Z,2.72
2022-09-09T10:19:34.703Z,2.51
2022-09-09T10:21:05.757Z,2.84
2022-09-09T10:23:22.920Z,3.18
2022-09-09T10:24:35.828Z,2.64
2022-09-09T10:25:54.516Z,2.83
2022-09-09T10:28:28.547Z,2.43
2022-09-09T10:29:38.409Z,2.67
2022-09-09T10:31:14.406Z,2.38
2022-09-09T10:32:40.916Z,2.42
2022-09-09T10:33:47.797Z,2.52
2022-09-09T10:34:54.855Z,2.31
2022-09-09T10:36:05.848Z,2.14
2022-09-09T10:38:45.407Z,3.11
2022-09-09T10:39:48.707Z,2.72
2022-09-09T10:40:58.068Z,3.12
2022-09-09T10:42:08.433Z,3.26
2022-09-09T10:43:34.941Z,2.87
2022-09-09T10:44:56.762Z,2.42
2022-09-09T10:46:32.924Z,2.59
2022-09-09T10:47:57.753Z,2.33
2022-09-09T10:50:37.973Z,2.95
2022-09-09T10:51:35.897Z,2.83
2022-09-09T10:53:14.175Z,2.66
2022-09-09T10:54:23.629Z,2.48
2022-09-09T10:55:30.405Z,2.56
2022-09-09T10:56:35.284Z,2.33
2022-09-09T10:57:42.357Z,2.69
2022-09-09T10:58:55.012Z,2.36
2022-09-09T11:00:03.628Z,2.88
2022-09-09T11:01:21.921Z,2.52
2022-09-09T11:02:30.080Z,2.54
2022-09-09T11:03:35.519Z,2.68
2022-09-09T11:05:00.751Z,2.06
2022-09-09T11:06:13.489Z,2.77
2022-09-09T11:07:25.845Z,2.77
2022-09-09T11:08:31.245Z,2.78
2022-09-09T11:09:40.466Z,2.82
2022-09-09T11:10:48.999Z,2.92
2022-09-09T11:11:55.024Z,3.16
2022-09-09T11:13:01.485Z,2.51
2022-09-09T11:14:24.954Z,2.55
2022-09-09T11:15:34.664Z,2.51
2022-09-09T11:16:52.810Z,2.83
2022-09-09T11:17:59.474Z,3.00
2022-09-09T11:19:35.011Z,2.94
2022-09-09T11:20:39.273Z,3.15
2022-09-09T11:21:46.258Z,2.45
2022-09-09T11:22:53.382Z,2.92
2022-09-09T11:24:02.671Z,2.51
2022-09-09T11:25:21.301Z,2.95
2022-09-09T11:26:34.566Z,2.38
2022-09-09T11:27:44.050Z,2.56
2022-09-09T11:29:05.083Z,2.19
2022-09-09T11:30:44.613Z,2.16
2022-09-09T11:31:47.297Z,2.41
2022-09-09T11:33:12.048Z,2.11
2022-09-09T11:34:40.065Z,2.01
2022-09-09T11:36:08.220Z,2.33
2022-09-09T11:37:23.946Z,2.17
2022-09-09T11:38:30.655Z,2.09
2022-09-09T11:39:55.168Z,1.91
2022-09-09T11:41:01.597Z,2.11
2022-09-09T11:42:10.877Z,2.31
2022-09-09T11:43:26.688Z,2.41
2022-09-09T11:44:31.852Z,2.12
2022-09-09T11:45:36.409Z,2.67
2022-09-09T11:46:41.993Z,2.41
2022-09-09T11:47:57.614Z,2.34
2022-09-09T11:49:06.128Z,2.24
2022-09-09T11:50:13.497Z,2.32
2022-09-09T11:51:26.204Z,2.37
2022-09-09T11:52:42.709Z,2.23
2022-09-09T11:53:54.566Z,2.20
2022-09-09T11:54:57.502Z,2.56
2022-09-09T11:56:06.929Z,1.92
2022-09-09T11:57:19.408Z,2.78
2022-09-09T11:58:23.182Z,2.31
2022-09-09T11:59:31.843Z,2.42
2022-09-09T12:00:45.068Z,1.87
2022-09-09T12:02:03.252Z,2.17
2022-09-09T12:03:09.415Z,1.64
2022-09-09T12:04:25.063Z,1.83
2022-09-09T12:05:40.888Z,1.57
2022-09-09T12:06:47.544Z,1.60
2022-09-09T12:07:57.373Z,1.58
2022-09-09T12:09:12.890Z,1.95
2022-09-09T12:10:33.575Z,1.86
2022-09-09T12:11:37.638Z,1.81
2022-09-09T12:12:43.973Z,1.69
2022-09-09T12:13:54.581Z,2.04
2022-09-09T12:15:03.791Z,2.45
2022-09-09T12:16:10.712Z,2.00
2022-09-09T12:17:20.936Z,1.90
2022-09-09T12:18:39.846Z,1.94
2022-09-09T12:19:44.209Z,2.81
2022-09-09T12:20:59.974Z,2.08
2022-09-09T12:22:10.275Z,1.91
2022-09-09T12:23:36.462Z,2.02
2022-09-09T12:24:55.101Z,1.61
2022-09-09T12:26:07.323Z,1.83
2022-09-09T12:27:23.014Z,1.74
2022-09-09T12:28:44.439Z,1.83
2022-09-09T12:29:57.154Z,1.95
2022-09-09T12:31:08.171Z,1.60
2022-09-09T12:32:14.644Z,1.68
2022-09-09T12:33:19.609Z,2.38
2022-09-09T12:34:29.712Z,1.62
2022-09-09T12:35:32.807Z,2.07
2022-09-09T12:36:38.343Z,1.67
2022-09-09T12:37:44.796Z,1.83
2022-09-09T12:38:48.181Z,1.82
2022-09-09T12:40:03.958Z,1.60
2022-09-09T12:41:07.356Z,1.49
2022-09-09T12:42:20.775Z,1.72
2022-09-09T12:43:25.135Z,1.51
2022-09-09T12:44:32.839Z,1.62
2022-09-09T12:45:36.669Z,1.75
2022-09-09T12:46:43.823Z,1.59
2022-09-09T12:47:52.948Z,1.61
2022-09-09T12:48:56.662Z,1.69
2022-09-09T12:50:00.559Z,1.48
2022-09-09T12:51:06.271Z,1.29
2022-09-09T12:52:15.597Z,1.32
2022-09-09T12:53:28.712Z,1.83
2022-09-09T12:54:32.054Z,1.73
2022-09-09T12:55:39.486Z,1.43
2022-09-09T12:56:46.188Z,1.43
2022-09-09T12:57:53.538Z,1.64
2022-09-09T12:58:58.750Z,1.31
2022-09-09T13:00:09.394Z,1.23
2022-09-09T13:01:27.475Z,1.46
2022-09-09T13:02:30.689Z,1.34
2022-09-09T13:03:37.082Z,1.42
2022-09-09T13:04:40.236Z,1.36
2022-09-09T13:05:43.304Z,0.90
2022-09-09T13:06:46.835Z,0.96
2022-09-09T13:07:50.003Z,1.13
2022-09-09T13:08:55.066Z,1.06
2022-09-09T13:09:57.941Z,1.24
2022-09-09T13:11:03.877Z,1.29
2022-09-09T13:12:13.726Z,1.32
2022-09-09T13:13:20.539Z,1.16
2022-09-09T13:14:30.309Z,0.99
2022-09-09T13:15:33.503Z,1.06
2022-09-09T13:16:42.539Z,1.16
2022-09-09T13:17:41.762Z,1.34
2022-09-09T13:18:45.030Z,0.85
2022-09-09T13:19:51.370Z,1.46
2022-09-09T13:20:56.549Z,1.34
2022-09-09T13:21:59.593Z,1.41
2022-09-09T13:23:02.790Z,1.46
2022-09-09T13:24:10.316Z,1.39
2022-09-09T13:25:24.953Z,1.31
2022-09-09T13:26:29.101Z,1.12
2022-09-09T13:27:34.765Z,1.12
2022-09-09T13:28:38.162Z,0.91
2022-09-09T13:29:42.948Z,1.07
2022-09-09T13:30:50.606Z,0.98
2022-09-09T13:31:54.394Z,1.57
2022-09-09T13:33:16.883Z,1.32
2022-09-09T13:34:32.810Z,0.93
2022-09-09T13:35:38.576Z,1.11
2022-09-09T13:36:42.578Z,1.14
2022-09-09T13:37:45.883Z,1.06
2022-09-09T13:38:57.533Z,1.14
2022-09-09T13:40:00.731Z,0.94
2022-09-09T13:41:12.076Z,1.18
2022-09-09T13:42:27.910Z,1.01
2022-09-09T13:43:34.404Z,1.12
2022-09-09T13:44:40.315Z,1.48
2022-09-09T13:45:46.772Z,1.12
2022-09-09T13:46:53.477Z,1.39
2022-09-09T13:47:56.723Z,1.10
2022-09-09T13:49:03.056Z,1.17
2022-09-09T13:50:21.753Z,1.37
2022-09-09T13:51:43.224Z,1.00
2022-09-09T13:52:47.836Z,1.31
2022-09-09T13:53:50.782Z,1.15
2022-09-09T13:54:54.718Z,1.05
2022-09-09T13:55:58.916Z,0.79
2022-09-09T13:57:02.158Z,0.90
2022-09-09T13:58:06.147Z,1.24
2022-09-09T13:59:14.822Z,1.21
2022-09-09T14:00:18.092Z,1.23
2022-09-09T14:01:21.118Z,1.27
2022-09-09T14:02:24.890Z,1.04
2022-09-09T14:03:27.932Z,1.05
2022-09-09T14:04:31.177Z,1.19
2022-09-09T14:05:34.719Z,1.20
2022-09-09T14:06:39.681Z,1.25
2022-09-09T14:07:44.031Z,1.26
2022-09-09T14:08:47.231Z,0.88
2022-09-09T14:09:52.204Z,1.09
2022-09-09T14:10:56.383Z,0.98
2022-09-09T14:12:00.173Z,1.40
2022-09-09T14:13:03.438Z,1.41
2022-09-09T14:14:06.432Z,1.16
2022-09-09T14:15:12.184Z,1.46
2022-09-09T14:16:19.165Z,1.03
2022-09-09T14:17:22.742Z,1.08
2022-09-09T14:18:25.806Z,0.94
2022-09-09T14:19:28.853Z,1.04
2022-09-09T14:20:33.074Z,1.00
2022-09-09T14:21:36.223Z,0.80
2022-09-09T14:22:39.854Z,1.09
2022-09-09T14:23:42.937Z,0.93
2022-09-09T14:24:45.860Z,0.99
2022-09-09T14:25:49.534Z,0.90
2022-09-09T14:26:52.704Z,0.84
2022-09-09T14:27:56.930Z,0.89
2022-09-09T14:29:01.964Z,0.78
2022-09-09T14:30:05.923Z,1.06
2022-09-09T14:31:10.935Z,0.90
2022-09-09T14:32:14.006Z,0.83
2022-09-09T14:33:17.648Z,1.21
2022-09-09T14:34:20.706Z,1.35
2022-09-09T14:35:24.306Z,1.13
2022-09-09T14:36:27.883Z,1.35
2022-09-09T14:37:31.681Z,1.36
2022-09-09T14:38:38.470Z,1.71
2022-09-09T14:39:43.412Z,1.86
2022-09-09T14:40:47.371Z,1.72
2022-09-09T14:41:50.264Z,1.94
2022-09-09T14:42:53.743Z,2.16
2022-09-09T14:43:57.450Z,1.41
2022-09-09T14:45:00.438Z,1.54
2022-09-09T14:46:12.421Z,1.45
2022-09-09T14:47:15.663Z,1.50
2022-09-09T14:48:19.713Z,1.44
2022-09-09T14:49:22.702Z,1.16
2022-09-09T14:50:25.971Z,1.17
2022-09-09T14:51:29.259Z,1.39
2022-09-09T14:52:32.394Z,1.26
2022-09-09T14:53:35.566Z,1.12
2022-09-09T14:54:38.613Z,0.96
2022-09-09T14:55:41.839Z,1.17
2022-09-09T14:56:45.237Z,1.10
2022-09-09T14:57:48.179Z,1.19
2022-09-09T14:58:51.516Z,0.96
2022-09-09T14:59:54.566Z,0.97
2022-09-09T15:01:04.555Z,0.86
2022-09-09T15:02:09.921Z,0.83
2022-09-09T15:03:13.150Z,0.74
2022-09-09T15:04:17.172Z,1.07
2022-09-09T15:05:20.715Z,0.86
2022-09-09T15:06:24.413Z,0.62
2022-09-09T15:07:28.655Z,0.61
2022-09-09T15:08:31.704Z,0.63
2022-09-09T15:09:34.671Z,0.74
2022-09-09T15:10:38.513Z,0.74
2022-09-09T15:11:41.685Z,0.70
2022-09-09T15:12:44.894Z,0.61
2022-09-09T15:13:47.936Z,0.50
2022-09-09T15:14:51.169Z,0.84
2022-09-09T15:15:54.696Z,0.72